createdAt,value
2023-03-02T00:01:34.938Z,35.67
2023-03-02T00:04:04.771Z,35.61
2023-03-02T00:06:35.579Z,35.56
2023-03-02T00:09:04.875Z,35.62
2023-03-02T00:11:36.614Z,35.65
2023-03-02T00:14:04.773Z,35.78
2023-03-02T00:16:33.275Z,35.59
2023-03-02T00:19:01.539Z,35.64
2023-03-02T00:21:29.687Z,35.64
2023-03-02T00:23:57.842Z,35.63
2023-03-02T00:26:26.136Z,35.68
2023-03-02T00:28:55.701Z,35.76
2023-03-02T00:31:23.865Z,35.60
2023-03-02T00:33:54.365Z,35.60
2023-03-02T00:36:23.454Z,35.60
2023-03-02T00:38:52.389Z,35.52
2023-03-02T00:41:22.444Z,35.58
2023-03-02T00:43:51.481Z,35.62
2023-03-02T00:46:23.632Z,35.55
2023-03-02T00:48:52.345Z,35.68
2023-03-02T00:51:20.676Z,35.54
2023-03-02T00:53:48.837Z,35.64
2023-03-02T00:56:16.965Z,35.46
2023-03-02T00:58:45.082Z,35.56
2023-03-02T01:01:13.980Z,35.65
2023-03-02T01:03:43.563Z,35.55
2023-03-02T01:06:17.003Z,35.68
2023-03-02T01:08:45.637Z,35.59
2023-03-02T01:11:15.702Z,35.59
2023-03-02T01:13:43.864Z,35.50
2023-03-02T01:16:12.648Z,35.49
2023-03-02T01:18:41.429Z,35.64
2023-03-02T01:21:13.855Z,35.51
2023-03-02T01:23:42.033Z,35.53
2023-03-02T01:26:10.493Z,35.44
2023-03-02T01:28:38.814Z,35.40
2023-03-02T01:31:07.015Z,35.57
2023-03-02T01:33:35.162Z,35.57
2023-03-02T01:36:03.492Z,35.56
2023-03-02T01:38:33.079Z,35.55
2023-03-02T01:41:01.191Z,35.39
2023-03-02T01:43:29.519Z,35.49
2023-03-02T01:46:00.649Z,35.47
2023-03-02T01:48:32.988Z,35.60
2023-03-02T01:51:03.197Z,35.65
2023-03-02T01:53:34.534Z,35.57
2023-03-02T01:56:04.954Z,35.54
2023-03-02T01:58:38.069Z,35.57
2023-03-02T02:01:15.645Z,35.45
2023-03-02T02:03:45.616Z,35.39
2023-03-02T02:06:19.483Z,35.40
2023-03-02T02:08:50.475Z,35.55
2023-03-02T02:11:19.140Z,35.35
2023-03-02T02:13:47.987Z,35.52
2023-03-02T02:16:16.141Z,35.36
2023-03-02T02:18:45.474Z,35.43
2023-03-02T02:21:14.340Z,35.61
2023-03-02T02:23:49.334Z,35.51
2023-03-02T02:26:23.807Z,35.46
2023-03-02T02:28:58.154Z,35.41
2023-03-02T02:31:31.997Z,35.41
2023-03-02T02:34:05.098Z,35.38
2023-03-02T02:36:39.188Z,35.34
2023-03-02T02:39:12.817Z,35.38
2023-03-02T02:41:43.623Z,35.38
2023-03-02T02:44:15.502Z,35.42
2023-03-02T02:46:44.676Z,35.51
2023-03-02T02:49:25.081Z,35.31
2023-03-02T02:51:53.407Z,35.61
2023-03-02T02:54:21.540Z,35.33
2023-03-02T02:56:53.231Z,35.52
2023-03-02T02:59:24.684Z,35.40
2023-03-02T03:01:53.604Z,35.50
2023-03-02T03:04:23.799Z,35.39
2023-03-02T03:06:53.814Z,35.38
2023-03-02T03:09:22.557Z,35.51
2023-03-02T03:11:53.862Z,35.20
2023-03-02T03:14:26.514Z,35.53
2023-03-02T03:16:56.156Z,35.54
2023-03-02T03:19:26.981Z,35.42
2023-03-02T03:21:57.193Z,35.38
2023-03-02T03:24:26.577Z,35.46
2023-03-02T03:26:56.622Z,35.37
2023-03-02T03:29:26.350Z,35.36
2023-03-02T03:31:56.800Z,35.33
2023-03-02T03:34:26.379Z,35.29
2023-03-02T03:36:54.755Z,35.37
2023-03-02T03:39:22.915Z,35.44
2023-03-02T03:41:50.967Z,35.39
2023-03-02T03:44:20.432Z,35.47
2023-03-02T03:46:48.494Z,35.38
2023-03-02T03:49:16.669Z,35.30
2023-03-02T03:51:45.425Z,35.46
2023-03-02T03:54:13.735Z,35.29
2023-03-02T03:56:46.075Z,35.40
2023-03-02T03:59:16.652Z,35.41
2023-03-02T04:01:49.245Z,35.33
2023-03-02T04:04:19.765Z,35.38
2023-03-02T04:06:48.407Z,35.26
2023-03-02T04:09:19.184Z,35.30
2023-03-02T04:11:49.399Z,35.26
2023-03-02T04:14:18.073Z,35.26
2023-03-02T04:16:48.057Z,35.21
2023-03-02T04:19:17.781Z,35.20
2023-03-02T04:21:48.479Z,35.44
2023-03-02T04:24:18.144Z,35.33
2023-03-02T04:26:49.182Z,35.28
2023-03-02T04:29:17.845Z,35.27
2023-03-02T04:31:48.605Z,35.34
2023-03-02T04:34:16.954Z,35.31
2023-03-02T04:36:45.436Z,35.19
2023-03-02T04:39:15.953Z,35.36
2023-03-02T04:41:44.210Z,35.21
2023-03-02T04:44:12.768Z,35.28
2023-03-02T04:46:44.532Z,35.27
2023-03-02T04:49:14.806Z,35.32
2023-03-02T04:51:44.900Z,35.26
2023-03-02T04:54:17.247Z,35.18
2023-03-02T04:56:48.518Z,35.14
2023-03-02T04:59:17.140Z,35.17
2023-03-02T05:01:46.005Z,35.30
2023-03-02T05:04:15.599Z,35.25
2023-03-02T05:06:43.851Z,35.08
2023-03-02T05:09:12.713Z,35.25
2023-03-02T05:11:40.998Z,35.13
2023-03-02T05:14:11.202Z,35.21
2023-03-02T05:16:42.394Z,35.21
2023-03-02T05:19:12.646Z,35.14
2023-03-02T05:21:42.252Z,35.06
2023-03-02T05:24:11.282Z,35.08
2023-03-02T05:26:39.536Z,34.97
2023-03-02T05:29:07.791Z,35.23
2023-03-02T05:31:38.407Z,35.14
2023-03-02T05:34:09.274Z,35.27
2023-03-02T05:36:37.922Z,35.21
2023-03-02T05:39:08.880Z,35.19
2023-03-02T05:41:38.230Z,35.26
2023-03-02T05:44:09.575Z,35.13
2023-03-02T05:46:37.970Z,35.05
2023-03-02T05:49:06.251Z,35.06
2023-03-02T05:51:34.368Z,35.26
2023-03-02T05:54:02.550Z,35.23
2023-03-02T05:56:32.404Z,35.15
2023-03-02T05:59:00.723Z,35.13
2023-03-02T06:01:28.878Z,35.21
2023-03-02T06:03:57.264Z,35.26
2023-03-02T06:06:25.412Z,35.08
2023-03-02T06:08:53.575Z,35.23
2023-03-02T06:11:21.763Z,35.07
2023-03-02T06:13:51.300Z,35.20
2023-03-02T06:16:19.484Z,34.98
2023-03-02T06:18:47.609Z,35.09
2023-03-02T06:21:16.124Z,35.23
2023-03-02T06:23:44.317Z,35.12
2023-03-02T06:26:13.487Z,35.05
2023-03-02T06:28:56.811Z,35.06
2023-03-02T06:31:26.488Z,35.13
2023-03-02T06:33:54.618Z,34.97
2023-03-02T06:36:22.817Z,35.14
2023-03-02T06:38:51.138Z,35.01
2023-03-02T06:41:19.237Z,35.09
2023-03-02T06:43:47.328Z,35.15
2023-03-02T06:46:15.478Z,35.19
2023-03-02T06:48:45.104Z,35.18
2023-03-02T06:51:13.927Z,35.03
2023-03-02T06:53:41.961Z,35.06
2023-03-02T06:56:10.158Z,35.05
2023-03-02T06:58:38.639Z,35.19
2023-03-02T07:01:08.204Z,35.19
2023-03-02T07:03:37.095Z,35.26
2023-03-02T07:06:07.184Z,35.33
2023-03-02T07:08:36.121Z,35.55
2023-03-02T07:11:07.747Z,35.53
2023-03-02T07:13:35.824Z,35.62
2023-03-02T07:16:07.868Z,35.64
2023-03-02T07:18:35.988Z,35.69
2023-03-02T07:21:04.229Z,35.69
2023-03-02T07:23:34.474Z,35.52
2023-03-02T07:26:02.587Z,35.53
2023-03-02T07:28:30.746Z,35.67
2023-03-02T07:30:58.935Z,35.73
2023-03-02T07:33:39.938Z,35.88
2023-03-02T07:36:08.994Z,35.76
2023-03-02T07:38:39.998Z,35.82
2023-03-02T07:41:10.117Z,35.82
2023-03-02T07:43:38.351Z,35.78
2023-03-02T07:46:07.442Z,35.81
2023-03-02T07:48:36.210Z,35.76
2023-03-02T07:51:06.582Z,35.69
2023-03-02T07:53:34.773Z,35.61
2023-03-02T07:56:07.981Z,35.57
2023-03-02T07:58:36.199Z,35.43
2023-03-02T08:01:04.638Z,35.64
2023-03-02T08:03:32.802Z,35.51
2023-03-02T08:06:05.103Z,35.43
2023-03-02T08:08:33.220Z,35.41
2023-03-02T08:11:07.777Z,35.40
2023-03-02T08:13:36.059Z,35.32
2023-03-02T08:16:05.880Z,35.44
2023-03-02T08:18:34.432Z,35.59
2023-03-02T08:21:02.545Z,35.43
2023-03-02T08:23:30.919Z,35.41
2023-03-02T08:25:59.192Z,35.81
2023-03-02T08:28:28.877Z,35.84
2023-03-02T08:30:57.857Z,35.76
2023-03-02T08:33:27.280Z,35.83
2023-03-02T08:36:01.870Z,36.28
2023-03-02T08:38:36.720Z,36.35
2023-03-02T08:41:06.722Z,36.11
2023-03-02T08:43:36.831Z,36.13
2023-03-02T08:46:05.481Z,36.23
2023-03-02T08:48:33.731Z,36.14
2023-03-02T08:51:03.737Z,35.95
2023-03-02T08:53:35.160Z,36.09
2023-03-02T08:56:03.869Z,36.05
2023-03-02T08:58:31.974Z,35.98
2023-03-02T09:01:01.537Z,36.19
2023-03-02T09:03:29.740Z,36.14
2023-03-02T09:05:57.879Z,36.09
2023-03-02T09:08:36.401Z,36.09
2023-03-02T09:11:04.537Z,36.20
2023-03-02T09:13:33.119Z,36.09
2023-03-02T09:16:03.753Z,36.12
2023-03-02T09:18:57.937Z,36.60
2023-03-02T09:21:26.482Z,36.11
2023-03-02T09:23:58.868Z,36.28
2023-03-02T09:26:27.868Z,36.17
2023-03-02T09:28:56.479Z,36.16
2023-03-02T09:31:27.883Z,36.16
2023-03-02T09:33:57.397Z,36.19
2023-03-02T09:36:27.255Z,36.32
2023-03-02T09:38:56.304Z,36.13
2023-03-02T09:41:47.341Z,36.29
2023-03-02T09:44:37.682Z,36.25
2023-03-02T09:47:29.913Z,36.28
2023-03-02T09:50:14.956Z,36.26
2023-03-02T09:52:51.930Z,36.26
2023-03-02T09:55:23.988Z,36.13
2023-03-02T09:57:53.864Z,36.42
2023-03-02T10:00:28.685Z,36.48
2023-03-02T10:03:16.227Z,36.36
2023-03-02T10:05:47.819Z,36.30
2023-03-02T10:08:18.112Z,36.44
2023-03-02T10:10:50.353Z,36.39
2023-03-02T10:13:26.577Z,36.30
2023-03-02T10:16:11.270Z,36.31
2023-03-02T10:18:47.272Z,36.49
2023-03-02T10:21:26.177Z,36.42
2023-03-02T10:24:00.305Z,36.39
2023-03-02T10:26:40.010Z,36.49
2023-03-02T10:29:35.347Z,36.71
2023-03-02T10:32:14.895Z,36.39
2023-03-02T10:34:44.616Z,36.28
2023-03-02T10:37:17.309Z,36.18
2023-03-02T10:39:45.510Z,36.20
2023-03-02T10:42:18.162Z,36.25
2023-03-02T10:44:50.198Z,36.27
2023-03-02T10:47:24.061Z,36.29
2023-03-02T10:49:54.648Z,36.14
2023-03-02T10:52:24.792Z,36.00
2023-03-02T10:55:04.061Z,36.22
2023-03-02T10:57:37.033Z,36.22
2023-03-02T11:00:16.228Z,36.19
2023-03-02T11:02:51.697Z,36.10
2023-03-02T11:05:32.829Z,36.11
2023-03-02T11:08:02.727Z,36.12
2023-03-02T11:10:32.495Z,36.19
2023-03-02T11:13:02.428Z,36.06
2023-03-02T11:15:38.230Z,36.18
2023-03-02T11:18:20.370Z,36.06
2023-03-02T11:20:54.199Z,36.04
2023-03-02T11:23:34.396Z,36.19
2023-03-02T11:26:09.247Z,36.24
2023-03-02T11:28:47.202Z,36.10
2023-03-02T11:31:23.807Z,36.02
2023-03-02T11:34:18.083Z,36.41
2023-03-02T11:36:57.491Z,36.26
2023-03-02T11:39:33.073Z,36.20
2023-03-02T11:42:01.468Z,36.38
2023-03-02T11:44:29.934Z,36.48
2023-03-02T11:47:02.126Z,36.40
2023-03-02T11:49:39.335Z,36.70
2023-03-02T11:52:20.138Z,36.63
2023-03-02T11:54:54.043Z,36.57
2023-03-02T11:57:27.078Z,36.44
2023-03-02T11:59:58.542Z,36.48
2023-03-02T12:02:27.833Z,36.55
2023-03-02T12:05:05.833Z,36.67
2023-03-02T12:07:36.006Z,36.58
2023-03-02T12:10:09.341Z,36.71
2023-03-02T12:12:42.207Z,36.69
2023-03-02T12:15:30.010Z,37.19
2023-03-02T12:17:58.760Z,36.79
2023-03-02T12:20:29.778Z,36.83
2023-03-02T12:23:11.055Z,36.95
2023-03-02T12:25:51.420Z,36.92
2023-03-02T12:28:34.207Z,37.03
2023-03-02T12:31:13.323Z,36.92
2023-03-02T12:33:48.027Z,36.79
2023-03-02T12:36:21.056Z,36.95
2023-03-02T12:39:08.006Z,37.01
2023-03-02T12:42:02.734Z,37.32
2023-03-02T12:44:44.064Z,37.06
2023-03-02T12:47:17.867Z,36.83
2023-03-02T12:49:50.709Z,36.84
2023-03-02T12:52:27.933Z,36.85
2023-03-02T12:55:07.973Z,37.12
2023-03-02T12:57:39.471Z,36.95
2023-03-02T13:00:19.027Z,37.00
2023-03-02T13:02:49.373Z,36.82
2023-03-02T13:05:20.622Z,36.99
2023-03-02T13:07:56.681Z,37.03
2023-03-02T13:10:30.884Z,36.96
2023-03-02T13:13:00.145Z,36.85
2023-03-02T13:15:28.577Z,37.01
2023-03-02T13:17:58.386Z,36.94
2023-03-02T13:20:29.020Z,36.89
2023-03-02T13:22:57.662Z,37.10
2023-03-02T13:25:29.863Z,36.95
2023-03-02T13:28:00.798Z,36.85
2023-03-02T13:30:31.279Z,36.91
2023-03-02T13:33:03.830Z,36.85
2023-03-02T13:35:33.957Z,37.10
2023-03-02T13:38:05.772Z,37.00
2023-03-02T13:40:41.249Z,37.03
2023-03-02T13:43:24.837Z,37.21
2023-03-02T13:45:55.284Z,37.01
2023-03-02T13:48:23.925Z,37.08
2023-03-02T13:50:58.184Z,36.88
2023-03-02T13:53:26.535Z,37.00
2023-03-02T13:55:56.281Z,36.99
2023-03-02T13:58:25.933Z,37.14
2023-03-02T14:00:54.458Z,37.20
2023-03-02T14:03:28.236Z,37.19
2023-03-02T14:05:57.715Z,37.11
2023-03-02T14:08:25.832Z,36.89
2023-03-02T14:10:58.555Z,36.96
2023-03-02T14:13:31.657Z,36.86
2023-03-02T14:15:59.900Z,36.93
2023-03-02T14:18:32.297Z,36.91
2023-03-02T14:21:00.586Z,36.88
2023-03-02T14:23:29.600Z,36.77
2023-03-02T14:25:59.366Z,36.83
2023-03-02T14:28:31.411Z,36.74
2023-03-02T14:31:00.164Z,36.85
2023-03-02T14:33:28.499Z,36.94
2023-03-02T14:35:59.652Z,36.81
2023-03-02T14:38:29.056Z,36.82
2023-03-02T14:40:58.857Z,36.74
2023-03-02T14:43:27.041Z,36.62
2023-03-02T14:45:55.246Z,36.58
2023-03-02T14:48:23.456Z,36.76
2023-03-02T14:50:52.689Z,36.62
2023-03-02T14:53:29.168Z,36.71
2023-03-02T14:55:58.794Z,36.72
2023-03-02T14:58:32.057Z,36.60
2023-03-02T15:01:00.301Z,36.70
2023-03-02T15:03:29.494Z,36.65
2023-03-02T15:06:02.122Z,36.72
2023-03-02T15:08:30.745Z,36.58
2023-03-02T15:11:00.272Z,36.79
2023-03-02T15:13:28.403Z,36.60
2023-03-02T15:15:56.528Z,36.60
2023-03-02T15:18:24.631Z,36.72
2023-03-02T15:20:52.675Z,36.73
2023-03-02T15:23:20.897Z,36.70
2023-03-02T15:25:48.976Z,36.66
2023-03-02T15:28:18.494Z,36.54
2023-03-02T15:30:47.569Z,36.51
2023-03-02T15:33:15.699Z,36.55
2023-03-02T15:35:44.416Z,36.62
2023-03-02T15:38:12.572Z,36.62
2023-03-02T15:40:41.025Z,36.55
2023-03-02T15:43:09.135Z,36.53
2023-03-02T15:45:38.676Z,36.57
2023-03-02T15:48:07.259Z,36.53
2023-03-02T15:50:35.377Z,36.60
2023-03-02T15:53:03.541Z,36.55
2023-03-02T15:55:31.698Z,36.56
2023-03-02T15:58:00.049Z,36.54
2023-03-02T16:00:28.545Z,36.62
2023-03-02T16:02:58.102Z,36.67
2023-03-02T16:05:26.313Z,36.51
2023-03-02T16:07:54.400Z,36.65
2023-03-02T16:10:24.933Z,36.58
2023-03-02T16:12:53.018Z,36.65
2023-03-02T16:15:21.123Z,36.51
2023-03-02T16:17:49.247Z,36.65
2023-03-02T16:20:19.126Z,36.49
2023-03-02T16:22:47.308Z,36.64
2023-03-02T16:25:15.437Z,36.64
2023-03-02T16:27:47.526Z,36.70
2023-03-02T16:30:16.804Z,36.51
2023-03-02T16:32:45.012Z,36.47
2023-03-02T16:35:13.227Z,36.55
2023-03-02T16:37:42.857Z,36.47
2023-03-02T16:40:12.715Z,36.67
2023-03-02T16:42:42.160Z,36.54
2023-03-02T16:45:11.468Z,36.64
2023-03-02T16:47:39.824Z,36.50
2023-03-02T16:50:09.051Z,36.53
2023-03-02T16:52:37.689Z,36.50
2023-03-02T16:55:12.788Z,36.56
2023-03-02T16:57:40.815Z,36.57
2023-03-02T17:00:10.730Z,36.55
2023-03-02T17:02:38.821Z,36.59
2023-03-02T17:05:07.514Z,36.60
2023-03-02T17:07:35.612Z,36.49
2023-03-02T17:10:04.208Z,36.63
2023-03-02T17:12:33.682Z,36.62
2023-03-02T17:15:01.862Z,36.57
2023-03-02T17:17:30.077Z,36.42
2023-03-02T17:19:58.188Z,36.57
2023-03-02T17:22:26.420Z,36.58
2023-03-02T17:24:54.432Z,36.63
2023-03-02T17:27:25.964Z,36.58
2023-03-02T17:29:56.205Z,36.49
2023-03-02T17:32:25.459Z,36.55
2023-03-02T17:34:53.492Z,36.50
2023-03-02T17:37:21.622Z,36.48
2023-03-02T17:39:51.371Z,36.45
2023-03-02T17:42:19.964Z,36.68
2023-03-02T17:44:48.058Z,36.53
2023-03-02T17:47:18.299Z,36.59
2023-03-02T17:49:46.414Z,36.45
2023-03-02T17:52:15.513Z,36.50
2023-03-02T17:54:44.493Z,36.51
2023-03-02T17:57:13.450Z,36.49
2023-03-02T17:59:41.591Z,36.71
2023-03-02T18:02:11.437Z,36.65
2023-03-02T18:04:40.977Z,36.79
2023-03-02T18:07:09.092Z,36.66
2023-03-02T18:09:37.214Z,36.69
2023-03-02T18:12:06.169Z,36.55
2023-03-02T18:14:34.382Z,36.49
2023-03-02T18:17:05.008Z,36.68
2023-03-02T18:19:33.135Z,36.62
2023-03-02T18:22:02.808Z,36.55
2023-03-02T18:24:30.935Z,36.53
2023-03-02T18:26:59.127Z,36.58
2023-03-02T18:29:27.214Z,36.48
2023-03-02T18:31:55.378Z,36.61
2023-03-02T18:34:23.806Z,36.64
2023-03-02T18:36:51.879Z,36.61
2023-03-02T18:39:21.453Z,36.54
2023-03-02T18:41:49.708Z,36.51
2023-03-02T18:44:17.834Z,36.54
2023-03-02T18:46:46.504Z,36.58
2023-03-02T18:49:14.670Z,36.64
2023-03-02T18:51:43.362Z,36.69
2023-03-02T18:54:11.498Z,36.52
2023-03-02T18:56:41.373Z,36.57
2023-03-02T18:59:09.879Z,36.71
2023-03-02T19:01:38.395Z,36.61
2023-03-02T19:04:06.906Z,36.52
2023-03-02T19:06:35.697Z,36.73
2023-03-02T19:09:04.378Z,36.70
2023-03-02T19:11:32.531Z,36.51
2023-03-02T19:14:02.143Z,36.68
2023-03-02T19:16:30.303Z,36.54
2023-03-02T19:18:58.519Z,36.63
2023-03-02T19:21:26.776Z,36.61
2023-03-02T19:23:54.994Z,36.66
2023-03-02T19:26:23.127Z,36.56
2023-03-02T19:28:51.262Z,36.63
2023-03-02T19:31:20.813Z,36.64
2023-03-02T19:33:49.417Z,36.67
2023-03-02T19:36:17.546Z,36.61
2023-03-02T19:38:45.608Z,36.52
2023-03-02T19:41:16.559Z,36.69
2023-03-02T19:43:46.027Z,36.60
2023-03-02T19:46:14.893Z,36.56
2023-03-02T19:48:44.571Z,36.61
2023-03-02T19:51:13.591Z,36.65
2023-03-02T19:53:41.692Z,36.64
2023-03-02T19:56:13.204Z,36.62
2023-03-02T19:58:47.444Z,36.67
2023-03-02T20:01:21.617Z,36.57
2023-03-02T20:03:52.624Z,36.54
2023-03-02T20:06:21.025Z,36.73
2023-03-02T20:08:49.795Z,36.55
2023-03-02T20:11:18.772Z,36.65
2023-03-02T20:13:48.320Z,36.53
2023-03-02T20:16:16.554Z,36.51
2023-03-02T20:18:45.689Z,36.55
2023-03-02T20:21:15.232Z,36.56
2023-03-02T20:23:43.333Z,36.53
2023-03-02T20:26:11.640Z,36.68
2023-03-02T20:28:39.748Z,36.60
2023-03-02T20:31:11.965Z,36.73
2023-03-02T20:33:44.828Z,36.52
2023-03-02T20:36:15.632Z,36.55
2023-03-02T20:38:46.631Z,36.57
2023-03-02T20:41:15.159Z,36.53
2023-03-02T20:43:43.766Z,36.53
2023-03-02T20:46:18.626Z,36.62
2023-03-02T20:48:46.884Z,36.49
2023-03-02T20:51:16.538Z,36.64
2023-03-02T20:53:47.017Z,36.54
2023-03-02T20:56:15.800Z,36.49
2023-03-02T20:58:44.404Z,36.62
2023-03-02T21:01:13.577Z,36.65
2023-03-02T21:03:42.939Z,36.59
2023-03-02T21:06:11.844Z,36.58
2023-03-02T21:08:41.986Z,36.44
2023-03-02T21:11:12.923Z,36.56
2023-03-02T21:13:42.002Z,36.51
2023-03-02T21:16:11.007Z,36.58
2023-03-02T21:18:39.101Z,36.53
2023-03-02T21:21:07.559Z,36.56
2023-03-02T21:23:35.631Z,36.44
2023-03-02T21:26:05.384Z,36.54
2023-03-02T21:28:33.447Z,36.58
2023-03-02T21:31:01.527Z,36.56
2023-03-02T21:33:29.669Z,36.41
2023-03-02T21:35:57.987Z,36.59
2023-03-02T21:38:26.062Z,36.39
2023-03-02T21:40:54.189Z,36.43
2023-03-02T21:43:23.652Z,36.40
2023-03-02T21:45:51.838Z,36.51
2023-03-02T21:48:22.815Z,36.47
2023-03-02T21:50:51.614Z,36.36
2023-03-02T21:53:19.719Z,36.52
2023-03-02T21:55:47.946Z,36.39
2023-03-02T21:58:16.995Z,36.53
2023-03-02T22:00:46.742Z,36.58
2023-03-02T22:03:15.022Z,36.45
2023-03-02T22:05:43.658Z,36.35
2023-03-02T22:08:17.598Z,36.53
2023-03-02T22:10:47.225Z,36.41
2023-03-02T22:13:18.509Z,36.41
2023-03-02T22:15:48.909Z,36.48
2023-03-02T22:18:19.286Z,36.44
2023-03-02T22:20:49.905Z,36.28
2023-03-02T22:23:21.068Z,36.44
2023-03-02T22:25:50.830Z,36.43
2023-03-02T22:28:20.875Z,36.43
2023-03-02T22:30:51.434Z,36.36
2023-03-02T22:33:21.276Z,36.37
2023-03-02T22:35:50.808Z,36.31
2023-03-02T22:38:25.284Z,36.39
2023-03-02T22:40:53.967Z,36.41
2023-03-02T22:43:26.118Z,36.45
2023-03-02T22:45:59.433Z,36.31
2023-03-02T22:48:31.704Z,36.41
2023-03-02T22:50:59.754Z,36.41
2023-03-02T22:53:30.408Z,36.34
2023-03-02T22:56:00.581Z,36.50
2023-03-02T22:58:42.590Z,36.28
2023-03-02T23:01:21.324Z,36.26
2023-03-02T23:03:51.360Z,36.45
2023-03-02T23:06:26.948Z,36.36
2023-03-02T23:08:56.844Z,36.42
2023-03-02T23:11:25.578Z,36.31
2023-03-02T23:13:54.112Z,36.32
2023-03-02T23:16:25.645Z,36.25
2023-03-02T23:18:56.093Z,36.34
2023-03-02T23:21:28.422Z,36.19
2023-03-02T23:23:56.808Z,36.26
2023-03-02T23:26:24.908Z,36.29
2023-03-02T23:28:52.958Z,36.32
2023-03-02T23:31:21.350Z,36.28
2023-03-02T23:33:51.186Z,36.26
2023-03-02T23:36:21.170Z,36.23
2023-03-02T23:38:49.500Z,36.27
2023-03-02T23:41:18.383Z,36.38
2023-03-02T23:43:46.683Z,36.47
2023-03-02T23:46:14.796Z,36.26
2023-03-02T23:48:43.656Z,36.39
2023-03-02T23:51:13.181Z,36.27
2023-03-02T23:53:41.233Z,36.27
2023-03-02T23:56:09.504Z,36.16
2023-03-02T23:58:37.654Z,36.33
